Middleton, NH (03887)

3:31 PM EDT on July 29, 2016 (GMT -0400)
Milton NH | | Change Station

Elev 558 ft 43.43 °N, 71.08 °W | Updated 43 seconds ago

Clear
Clear
81.9 °F
Feels Like 84 °F
N
0.0
Wind Variable Wind from SW
Gusts 0.0 mph

Today
High -- | Low -- °F
--% Chance of Precip.
Yesterday
High -- | Low -- °F
Precip. -- in
Pressure 29.84 in
Visibility 10.0 miles
Clouds Clear
Heat Index 84 °F
Dew Point 67 °F
Humidity 60%
Rainfall 0.14 in
Snow Depth Not available.
5:31 AM 8:09 PM
Waning Crescent, 19% visible
METAR KDAW 291851Z AUTO VRB06KT 10SM CLR 27/19 A2985 RMK AO2 SLP103 T02670189 TSNO
Pressure 29.84 in
Visibility 10.0 miles
Clouds Clear
Heat Index 84 °F
Dew Point 67 °F
Humidity 60%
Rainfall 0.14 in
Snow Depth Not available.
5:31 AM 8:09 PM
Waning Crescent, 19% visible
METAR KDAW 291851Z AUTO VRB06KT 10SM CLR 27/19 A2985 RMK AO2 SLP103 T02670189 TSNO

10-Day Weather Forecast

Almanac

Astronomy

Jul. 29, 2016 Rise Set
Actual Time
Civil Twilight
Nautical Twilight
Astronomical Twilight
Moon
Length of Visible Light
Length of Day
Tomorrow will be .
, % of the Moon is Illuminated

Today's Extremes

State Highs State Lows

Community

WunderPhotos

Upload Photos

1,928,399 photos uploaded!

WunderBlog® & News

Nearby

Air Quality

  Air Quality AQ Index Pollutant
Not available.

Snow Depth

Station Depth Elevation

Earthquake Activity

City Distance Mag. Time & Date
Minimum magnitude displayed is 2.5.

Coastal Water Temperatures

Place Temperature

Stations

Nearby Weather Stations

Station Location Temp. Windchill Dew Point Humidity Wind Precip. Elev Updated Type
                   

Watches & Warnings

There are currently no watches in effect.